sensor_id;sensor_type;location;lat;lon;timestamp;P1;durP1;ratioP1;P2;durP2;ratioP2
52188;SDS011;38162;45.926;13.608;2022-11-18T00:03:33;27.52;;;23.52;;
52188;SDS011;38162;45.926;13.608;2022-11-18T00:05:59;26.73;;;22.30;;
52188;SDS011;38162;45.926;13.608;2022-11-18T00:08:25;27.42;;;22.38;;
52188;SDS011;38162;45.926;13.608;2022-11-18T00:10:51;27.48;;;23.27;;
52188;SDS011;38162;45.926;13.608;2022-11-18T00:13:18;26.35;;;21.58;;
52188;SDS011;38162;45.926;13.608;2022-11-18T00:16:03;29.25;;;21.55;;
52188;SDS011;38162;45.926;13.608;2022-11-18T00:18:36;28.30;;;22.15;;
52188;SDS011;38162;45.926;13.608;2022-11-18T00:21:05;30.60;;;22.83;;
52188;SDS011;38162;45.926;13.608;2022-11-18T00:23:33;29.13;;;22.10;;
52188;SDS011;38162;45.926;13.608;2022-11-18T00:26:02;30.40;;;22.92;;
52188;SDS011;38162;45.926;13.608;2022-11-18T00:28:30;25.83;;;21.75;;
52188;SDS011;38162;45.926;13.608;2022-11-18T00:31:03;31.55;;;23.83;;
52188;SDS011;38162;45.926;13.608;2022-11-18T00:33:33;34.28;;;23.42;;
52188;SDS011;38162;45.926;13.608;2022-11-18T00:36:01;26.40;;;22.13;;
52188;SDS011;38162;45.926;13.608;2022-11-18T00:38:28;29.58;;;21.70;;
52188;SDS011;38162;45.926;13.608;2022-11-18T00:41:10;28.65;;;21.90;;
52188;SDS011;38162;45.926;13.608;2022-11-18T00:43:37;28.90;;;22.58;;
52188;SDS011;38162;45.926;13.608;2022-11-18T00:46:03;28.58;;;21.30;;
52188;SDS011;38162;45.926;13.608;2022-11-18T00:48:31;25.75;;;21.60;;
52188;SDS011;38162;45.926;13.608;2022-11-18T00:50:57;26.48;;;21.58;;
52188;SDS011;38162;45.926;13.608;2022-11-18T00:53:30;28.73;;;22.05;;
52188;SDS011;38162;45.926;13.608;2022-11-18T00:55:55;29.25;;;21.38;;
52188;SDS011;38162;45.926;13.608;2022-11-18T00:58:21;29.23;;;22.75;;
52188;SDS011;38162;45.926;13.608;2022-11-18T01:00:49;29.67;;;21.55;;
52188;SDS011;38162;45.926;13.608;2022-11-18T01:03:16;24.48;;;20.50;;
52188;SDS011;38162;45.926;13.608;2022-11-18T01:05:42;28.30;;;21.23;;
52188;SDS011;38162;45.926;13.608;2022-11-18T01:08:08;28.30;;;20.55;;
52188;SDS011;38162;45.926;13.608;2022-11-18T01:10:35;23.35;;;18.83;;
52188;SDS011;38162;45.926;13.608;2022-11-18T01:13:01;24.83;;;18.85;;
52188;SDS011;38162;45.926;13.608;2022-11-18T01:15:43;22.33;;;16.70;;
52188;SDS011;38162;45.926;13.608;2022-11-18T01:18:20;22.48;;;16.75;;
52188;SDS011;38162;45.926;13.608;2022-11-18T01:20:58;23.23;;;17.40;;
52188;SDS011;38162;45.926;13.608;2022-11-18T01:23:28;23.65;;;16.50;;
52188;SDS011;38162;45.926;13.608;2022-11-18T01:25:54;21.25;;;16.27;;
52188;SDS011;38162;45.926;13.608;2022-11-18T01:28:19;21.23;;;16.38;;
52188;SDS011;38162;45.926;13.608;2022-11-18T01:30:45;21.50;;;16.33;;
52188;SDS011;38162;45.926;13.608;2022-11-18T01:33:11;22.70;;;15.82;;
52188;SDS011;38162;45.926;13.608;2022-11-18T01:35:38;20.92;;;16.15;;
52188;SDS011;38162;45.926;13.608;2022-11-18T01:38:06;21.13;;;16.27;;
52188;SDS011;38162;45.926;13.608;2022-11-18T01:40:33;21.27;;;15.07;;
52188;SDS011;38162;45.926;13.608;2022-11-18T01:42:59;20.27;;;15.27;;
52188;SDS011;38162;45.926;13.608;2022-11-18T01:50:33;17.17;;;14.10;;
52188;SDS011;38162;45.926;13.608;2022-11-18T01:53:04;16.80;;;13.88;;
52188;SDS011;38162;45.926;13.608;2022-11-18T01:55:34;17.13;;;12.73;;
52188;SDS011;38162;45.926;13.608;2022-11-18T01:58:07;13.82;;;11.65;;
52188;SDS011;38162;45.926;13.608;2022-11-18T02:00:38;13.88;;;11.15;;
52188;SDS011;38162;45.926;13.608;2022-11-18T02:03:04;16.15;;;11.45;;
52188;SDS011;38162;45.926;13.608;2022-11-18T02:05:31;12.73;;;11.15;;
52188;SDS011;38162;45.926;13.608;2022-11-18T02:07:59;16.33;;;10.82;;
52188;SDS011;38162;45.926;13.608;2022-11-18T02:10:25;15.70;;;11.85;;
52188;SDS011;38162;45.926;13.608;2022-11-18T02:12:51;15.75;;;10.90;;
52188;SDS011;38162;45.926;13.608;2022-11-18T02:15:21;12.43;;;10.48;;
52188;SDS011;38162;45.926;13.608;2022-11-18T02:17:56;15.80;;;10.73;;
52188;SDS011;38162;45.926;13.608;2022-11-18T02:20:45;15.73;;;11.32;;
52188;SDS011;38162;45.926;13.608;2022-11-18T02:28:55;13.10;;;10.07;;
52188;SDS011;38162;45.926;13.608;2022-11-18T02:31:24;10.68;;;9.55;;
52188;SDS011;38162;45.926;13.608;2022-11-18T02:36:56;17.10;;;11.02;;
52188;SDS011;38162;45.926;13.608;2022-11-18T02:39:32;21.75;;;14.43;;
52188;SDS011;38162;45.926;13.608;2022-11-18T02:42:03;18.75;;;15.93;;
52188;SDS011;38162;45.926;13.608;2022-11-18T02:44:33;19.55;;;16.50;;
52188;SDS011;38162;45.926;13.608;2022-11-18T02:47:02;22.35;;;16.95;;
52188;SDS011;38162;45.926;13.608;2022-11-18T02:49:33;22.65;;;17.25;;
52188;SDS011;38162;45.926;13.608;2022-11-18T02:52:02;22.02;;;17.80;;
52188;SDS011;38162;45.926;13.608;2022-11-18T02:54:30;24.08;;;18.38;;
52188;SDS011;38162;45.926;13.608;2022-11-18T02:56:58;20.00;;;17.42;;
52188;SDS011;38162;45.926;13.608;2022-11-18T02:59:26;24.35;;;18.55;;
52188;SDS011;38162;45.926;13.608;2022-11-18T03:01:52;22.92;;;19.08;;
52188;SDS011;38162;45.926;13.608;2022-11-18T03:04:18;35.97;;;19.48;;
52188;SDS011;38162;45.926;13.608;2022-11-18T03:06:48;23.90;;;18.77;;
52188;SDS011;38162;45.926;13.608;2022-11-18T03:09:34;26.13;;;17.90;;
52188;SDS011;38162;45.926;13.608;2022-11-18T03:23:20;15.90;;;13.02;;
52188;SDS011;38162;45.926;13.608;2022-11-18T03:26:29;17.05;;;12.68;;
52188;SDS011;38162;45.926;13.608;2022-11-18T03:31:24;17.45;;;14.10;;
52188;SDS011;38162;45.926;13.608;2022-11-18T03:34:00;18.95;;;14.38;;
52188;SDS011;38162;45.926;13.608;2022-11-18T03:36:32;20.20;;;13.75;;
52188;SDS011;38162;45.926;13.608;2022-11-18T03:39:04;16.88;;;13.98;;
52188;SDS011;38162;45.926;13.608;2022-11-18T03:41:34;18.25;;;13.30;;
52188;SDS011;38162;45.926;13.608;2022-11-18T03:44:05;21.42;;;13.30;;
52188;SDS011;38162;45.926;13.608;2022-11-18T03:46:43;18.98;;;14.45;;
52188;SDS011;38162;45.926;13.608;2022-11-18T03:51:52;18.45;;;15.43;;
52188;SDS011;38162;45.926;13.608;2022-11-18T03:54:23;24.13;;;16.80;;
52188;SDS011;38162;45.926;13.608;2022-11-18T03:57:03;21.50;;;15.77;;
52188;SDS011;38162;45.926;13.608;2022-11-18T04:04:44;17.42;;;14.55;;
52188;SDS011;38162;45.926;13.608;2022-11-18T04:09:45;23.83;;;15.60;;
52188;SDS011;38162;45.926;13.608;2022-11-18T04:12:19;17.40;;;14.43;;
52188;SDS011;38162;45.926;13.608;2022-11-18T04:14:45;24.25;;;14.63;;
52188;SDS011;38162;45.926;13.608;2022-11-18T04:17:14;19.20;;;13.23;;
52188;SDS011;38162;45.926;13.608;2022-11-18T04:19:44;16.52;;;14.13;;
52188;SDS011;38162;45.926;13.608;2022-11-18T04:22:10;18.77;;;14.07;;
52188;SDS011;38162;45.926;13.608;2022-11-18T04:24:36;19.92;;;14.35;;
52188;SDS011;38162;45.926;13.608;2022-11-18T04:27:03;17.55;;;14.20;;
52188;SDS011;38162;45.926;13.608;2022-11-18T04:29:29;18.27;;;13.52;;
52188;SDS011;38162;45.926;13.608;2022-11-18T04:31:55;20.73;;;14.00;;
52188;SDS011;38162;45.926;13.608;2022-11-18T04:34:21;18.13;;;13.23;;
52188;SDS011;38162;45.926;13.608;2022-11-18T04:36:47;17.75;;;12.57;;
52188;SDS011;38162;45.926;13.608;2022-11-18T04:39:12;16.67;;;12.15;;
52188;SDS011;38162;45.926;13.608;2022-11-18T04:41:38;19.42;;;10.10;;
52188;SDS011;38162;45.926;13.608;2022-11-18T04:44:19;12.48;;;9.85;;
52188;SDS011;38162;45.926;13.608;2022-11-18T04:46:52;17.42;;;9.52;;
52188;SDS011;38162;45.926;13.608;2022-11-18T04:49:19;10.77;;;9.25;;
52188;SDS011;38162;45.926;13.608;2022-11-18T04:51:45;11.43;;;7.85;;
52188;SDS011;38162;45.926;13.608;2022-11-18T04:54:11;12.68;;;8.05;;
52188;SDS011;38162;45.926;13.608;2022-11-18T04:56:38;10.48;;;8.20;;
52188;SDS011;38162;45.926;13.608;2022-11-18T04:59:04;11.25;;;7.55;;
52188;SDS011;38162;45.926;13.608;2022-11-18T05:01:31;12.30;;;7.80;;
52188;SDS011;38162;45.926;13.608;2022-11-18T05:03:58;11.55;;;7.45;;
52188;SDS011;38162;45.926;13.608;2022-11-18T05:06:25;9.75;;;6.95;;
52188;SDS011;38162;45.926;13.608;2022-11-18T05:08:51;9.93;;;6.75;;
52188;SDS011;38162;45.926;13.608;2022-11-18T05:11:17;11.38;;;7.43;;
52188;SDS011;38162;45.926;13.608;2022-11-18T05:14:02;7.95;;;6.18;;
52188;SDS011;38162;45.926;13.608;2022-11-18T05:16:28;8.18;;;7.28;;
52188;SDS011;38162;45.926;13.608;2022-11-18T05:18:54;15.52;;;7.60;;
52188;SDS011;38162;45.926;13.608;2022-11-18T05:21:19;16.40;;;7.82;;
52188;SDS011;38162;45.926;13.608;2022-11-18T05:23:45;15.02;;;8.70;;
52188;SDS011;38162;45.926;13.608;2022-11-18T05:26:11;11.57;;;7.85;;
52188;SDS011;38162;45.926;13.608;2022-11-18T05:28:36;14.82;;;8.38;;
52188;SDS011;38162;45.926;13.608;2022-11-18T05:31:06;11.43;;;8.38;;
52188;SDS011;38162;45.926;13.608;2022-11-18T05:33:36;15.65;;;8.75;;
52188;SDS011;38162;45.926;13.608;2022-11-18T05:36:06;13.23;;;8.70;;
52188;SDS011;38162;45.926;13.608;2022-11-18T05:38:36;9.70;;;8.45;;
52188;SDS011;38162;45.926;13.608;2022-11-18T05:41:02;11.25;;;8.68;;
52188;SDS011;38162;45.926;13.608;2022-11-18T05:43:28;19.02;;;8.90;;
52188;SDS011;38162;45.926;13.608;2022-11-18T05:45:55;13.27;;;9.13;;
52188;SDS011;38162;45.926;13.608;2022-11-18T05:48:21;14.25;;;9.18;;
52188;SDS011;38162;45.926;13.608;2022-11-18T05:50:47;11.95;;;8.73;;
52188;SDS011;38162;45.926;13.608;2022-11-18T05:53:15;13.57;;;8.95;;
52188;SDS011;38162;45.926;13.608;2022-11-18T05:58:27;15.70;;;8.75;;
52188;SDS011;38162;45.926;13.608;2022-11-18T06:00:54;14.23;;;9.23;;
52188;SDS011;38162;45.926;13.608;2022-11-18T06:03:25;17.92;;;9.70;;
52188;SDS011;38162;45.926;13.608;2022-11-18T06:05:54;12.85;;;8.52;;
52188;SDS011;38162;45.926;13.608;2022-11-18T06:08:20;12.32;;;9.32;;
52188;SDS011;38162;45.926;13.608;2022-11-18T06:10:50;22.00;;;10.07;;
52188;SDS011;38162;45.926;13.608;2022-11-18T06:13:18;19.75;;;8.73;;
52188;SDS011;38162;45.926;13.608;2022-11-18T06:15:50;13.73;;;8.88;;
52188;SDS011;38162;45.926;13.608;2022-11-18T06:20:45;11.68;;;8.55;;
52188;SDS011;38162;45.926;13.608;2022-11-18T06:23:11;14.15;;;9.23;;
52188;SDS011;38162;45.926;13.608;2022-11-18T06:25:37;13.35;;;9.18;;
52188;SDS011;38162;45.926;13.608;2022-11-18T06:28:04;15.70;;;8.93;;
52188;SDS011;38162;45.926;13.608;2022-11-18T06:30:31;11.00;;;8.50;;
52188;SDS011;38162;45.926;13.608;2022-11-18T06:32:57;17.00;;;9.25;;
52188;SDS011;38162;45.926;13.608;2022-11-18T06:35:22;12.82;;;9.05;;
52188;SDS011;38162;45.926;13.608;2022-11-18T06:37:48;13.20;;;8.77;;
52188;SDS011;38162;45.926;13.608;2022-11-18T06:40:14;11.93;;;8.52;;
52188;SDS011;38162;45.926;13.608;2022-11-18T06:42:40;14.25;;;9.63;;
52188;SDS011;38162;45.926;13.608;2022-11-18T06:45:24;14.52;;;9.90;;
52188;SDS011;38162;45.926;13.608;2022-11-18T06:47:50;13.02;;;9.75;;
52188;SDS011;38162;45.926;13.608;2022-11-18T06:50:16;12.25;;;9.75;;
52188;SDS011;38162;45.926;13.608;2022-11-18T06:52:41;10.52;;;9.25;;
52188;SDS011;38162;45.926;13.608;2022-11-18T06:55:07;13.48;;;8.25;;
52188;SDS011;38162;45.926;13.608;2022-11-18T06:57:33;12.40;;;8.82;;
52188;SDS011;38162;45.926;13.608;2022-11-18T06:59:59;16.02;;;9.20;;
52188;SDS011;38162;45.926;13.608;2022-11-18T07:02:25;17.20;;;8.80;;
52188;SDS011;38162;45.926;13.608;2022-11-18T07:04:51;10.45;;;8.45;;
52188;SDS011;38162;45.926;13.608;2022-11-18T07:07:16;12.30;;;8.63;;
52188;SDS011;38162;45.926;13.608;2022-11-18T07:09:42;10.85;;;8.48;;
52188;SDS011;38162;45.926;13.608;2022-11-18T07:12:08;15.90;;;10.23;;
52188;SDS011;38162;45.926;13.608;2022-11-18T07:14:34;15.00;;;11.05;;
52188;SDS011;38162;45.926;13.608;2022-11-18T07:16:59;19.02;;;13.45;;
52188;SDS011;38162;45.926;13.608;2022-11-18T07:19:25;19.13;;;13.43;;
52188;SDS011;38162;45.926;13.608;2022-11-18T07:21:52;17.92;;;11.82;;
52188;SDS011;38162;45.926;13.608;2022-11-18T07:24:18;10.77;;;8.57;;
52188;SDS011;38162;45.926;13.608;2022-11-18T07:26:44;10.70;;;8.07;;
52188;SDS011;38162;45.926;13.608;2022-11-18T07:29:09;10.15;;;7.30;;
52188;SDS011;38162;45.926;13.608;2022-11-18T07:31:35;11.88;;;7.88;;
52188;SDS011;38162;45.926;13.608;2022-11-18T07:34:05;9.20;;;7.65;;
52188;SDS011;38162;45.926;13.608;2022-11-18T07:36:31;9.70;;;7.35;;
52188;SDS011;38162;45.926;13.608;2022-11-18T07:38:57;10.70;;;7.20;;
52188;SDS011;38162;45.926;13.608;2022-11-18T07:41:25;12.38;;;8.68;;
52188;SDS011;38162;45.926;13.608;2022-11-18T07:43:53;9.57;;;8.13;;
52188;SDS011;38162;45.926;13.608;2022-11-18T07:46:21;9.90;;;8.65;;
52188;SDS011;38162;45.926;13.608;2022-11-18T07:48:49;9.98;;;8.38;;
52188;SDS011;38162;45.926;13.608;2022-11-18T07:51:17;14.60;;;8.73;;
52188;SDS011;38162;45.926;13.608;2022-11-18T07:53:44;12.10;;;9.20;;
52188;SDS011;38162;45.926;13.608;2022-11-18T07:56:11;12.25;;;9.25;;
52188;SDS011;38162;45.926;13.608;2022-11-18T07:58:37;11.55;;;9.38;;
52188;SDS011;38162;45.926;13.608;2022-11-18T08:03:43;12.90;;;8.13;;
52188;SDS011;38162;45.926;13.608;2022-11-18T08:06:10;8.90;;;7.30;;
52188;SDS011;38162;45.926;13.608;2022-11-18T08:08:37;13.75;;;7.20;;
52188;SDS011;38162;45.926;13.608;2022-11-18T08:11:04;9.38;;;7.35;;
52188;SDS011;38162;45.926;13.608;2022-11-18T08:13:32;13.20;;;7.15;;
52188;SDS011;38162;45.926;13.608;2022-11-18T08:15:59;11.05;;;6.55;;
52188;SDS011;38162;45.926;13.608;2022-11-18T08:18:26;9.75;;;6.30;;
52188;SDS011;38162;45.926;13.608;2022-11-18T08:20:53;7.22;;;6.47;;
52188;SDS011;38162;45.926;13.608;2022-11-18T08:23:19;12.25;;;6.80;;
52188;SDS011;38162;45.926;13.608;2022-11-18T08:25:44;14.75;;;7.18;;
52188;SDS011;38162;45.926;13.608;2022-11-18T08:28:11;13.30;;;6.22;;
52188;SDS011;38162;45.926;13.608;2022-11-18T08:30:38;7.75;;;5.65;;
52188;SDS011;38162;45.926;13.608;2022-11-18T08:33:04;7.22;;;5.90;;
52188;SDS011;38162;45.926;13.608;2022-11-18T08:35:30;8.52;;;5.38;;
52188;SDS011;38162;45.926;13.608;2022-11-18T08:37:57;7.07;;;5.30;;
52188;SDS011;38162;45.926;13.608;2022-11-18T08:40:23;7.45;;;4.90;;
52188;SDS011;38162;45.926;13.608;2022-11-18T08:42:49;6.50;;;4.25;;
52188;SDS011;38162;45.926;13.608;2022-11-18T08:45:15;8.98;;;4.88;;
52188;SDS011;38162;45.926;13.608;2022-11-18T08:47:41;5.53;;;4.10;;
52188;SDS011;38162;45.926;13.608;2022-11-18T08:50:08;10.13;;;4.43;;
52188;SDS011;38162;45.926;13.608;2022-11-18T08:52:35;5.65;;;4.43;;
52188;SDS011;38162;45.926;13.608;2022-11-18T08:55:01;6.10;;;4.50;;
52188;SDS011;38162;45.926;13.608;2022-11-18T08:57:28;6.72;;;4.65;;
52188;SDS011;38162;45.926;13.608;2022-11-18T08:59:54;7.93;;;4.97;;
52188;SDS011;38162;45.926;13.608;2022-11-18T09:02:20;9.23;;;5.30;;
52188;SDS011;38162;45.926;13.608;2022-11-18T09:04:47;8.68;;;4.82;;
52188;SDS011;38162;45.926;13.608;2022-11-18T09:07:14;11.32;;;5.40;;
52188;SDS011;38162;45.926;13.608;2022-11-18T09:09:41;10.75;;;5.03;;
52188;SDS011;38162;45.926;13.608;2022-11-18T09:12:06;9.45;;;5.10;;
52188;SDS011;38162;45.926;13.608;2022-11-18T09:14:33;9.73;;;4.85;;
52188;SDS011;38162;45.926;13.608;2022-11-18T09:16:59;7.45;;;4.68;;
52188;SDS011;38162;45.926;13.608;2022-11-18T09:19:25;13.05;;;4.82;;
52188;SDS011;38162;45.926;13.608;2022-11-18T09:21:51;8.13;;;5.53;;
52188;SDS011;38162;45.926;13.608;2022-11-18T09:24:17;10.80;;;5.82;;
52188;SDS011;38162;45.926;13.608;2022-11-18T09:26:42;7.40;;;5.40;;
52188;SDS011;38162;45.926;13.608;2022-11-18T09:29:08;8.32;;;5.18;;
52188;SDS011;38162;45.926;13.608;2022-11-18T09:31:35;9.20;;;5.93;;
52188;SDS011;38162;45.926;13.608;2022-11-18T09:34:01;10.18;;;5.57;;
52188;SDS011;38162;45.926;13.608;2022-11-18T09:36:27;20.65;;;6.30;;
52188;SDS011;38162;45.926;13.608;2022-11-18T09:38:53;7.68;;;5.25;;
52188;SDS011;38162;45.926;13.608;2022-11-18T09:41:25;11.95;;;5.78;;
52188;SDS011;38162;45.926;13.608;2022-11-18T09:44:48;7.72;;;5.93;;
52188;SDS011;38162;45.926;13.608;2022-11-18T09:49:42;13.40;;;6.85;;
52188;SDS011;38162;45.926;13.608;2022-11-18T09:54:44;9.57;;;6.32;;
52188;SDS011;38162;45.926;13.608;2022-11-18T09:57:16;11.05;;;6.10;;
52188;SDS011;38162;45.926;13.608;2022-11-18T09:59:52;10.38;;;5.75;;
52188;SDS011;38162;45.926;13.608;2022-11-18T10:02:25;11.02;;;6.55;;
52188;SDS011;38162;45.926;13.608;2022-11-18T10:05:20;10.15;;;6.47;;
52188;SDS011;38162;45.926;13.608;2022-11-18T10:07:51;9.80;;;7.18;;
52188;SDS011;38162;45.926;13.608;2022-11-18T10:10:34;8.98;;;7.00;;
52188;SDS011;38162;45.926;13.608;2022-11-18T10:18:55;10.77;;;8.02;;
52188;SDS011;38162;45.926;13.608;2022-11-18T10:24:12;9.18;;;5.97;;
52188;SDS011;38162;45.926;13.608;2022-11-18T10:26:44;6.65;;;5.00;;
52188;SDS011;38162;45.926;13.608;2022-11-18T10:29:10;6.00;;;4.70;;
52188;SDS011;38162;45.926;13.608;2022-11-18T10:31:36;5.90;;;4.15;;
52188;SDS011;38162;45.926;13.608;2022-11-18T10:34:04;4.00;;;3.60;;
52188;SDS011;38162;45.926;13.608;2022-11-18T10:36:30;7.20;;;3.92;;
52188;SDS011;38162;45.926;13.608;2022-11-18T10:39:31;6.13;;;4.03;;
52188;SDS011;38162;45.926;13.608;2022-11-18T10:41:50;4.38;;;3.55;;
52188;SDS011;38162;45.926;13.608;2022-11-18T10:50:00;5.97;;;2.70;;
52188;SDS011;38162;45.926;13.608;2022-11-18T10:52:50;9.35;;;2.92;;
52188;SDS011;38162;45.926;13.608;2022-11-18T10:55:21;11.05;;;3.10;;
52188;SDS011;38162;45.926;13.608;2022-11-18T10:57:49;3.40;;;2.50;;
52188;SDS011;38162;45.926;13.608;2022-11-18T11:09:24;4.50;;;2.40;;
52188;SDS011;38162;45.926;13.608;2022-11-18T11:11:41;5.15;;;2.30;;
52188;SDS011;38162;45.926;13.608;2022-11-18T11:19:42;5.45;;;2.75;;
52188;SDS011;38162;45.926;13.608;2022-11-18T11:22:15;5.10;;;2.97;;
52188;SDS011;38162;45.926;13.608;2022-11-18T11:24:41;3.70;;;3.05;;
52188;SDS011;38162;45.926;13.608;2022-11-18T11:27:16;8.35;;;3.20;;
52188;SDS011;38162;45.926;13.608;2022-11-18T11:52:28;6.70;;;3.20;;
52188;SDS011;38162;45.926;13.608;2022-11-18T12:00:16;6.25;;;3.80;;
52188;SDS011;38162;45.926;13.608;2022-11-18T12:05:23;7.27;;;4.27;;
52188;SDS011;38162;45.926;13.608;2022-11-18T12:07:52;6.68;;;3.70;;
52188;SDS011;38162;45.926;13.608;2022-11-18T12:13:10;4.00;;;1.90;;
52188;SDS011;38162;45.926;13.608;2022-11-18T12:15:47;3.60;;;1.00;;
52188;SDS011;38162;45.926;13.608;2022-11-18T12:18:36;4.30;;;0.77;;
52188;SDS011;38162;45.926;13.608;2022-11-18T12:21:07;1.55;;;0.63;;
52188;SDS011;38162;45.926;13.608;2022-11-18T12:24:39;2.95;;;0.60;;
52188;SDS011;38162;45.926;13.608;2022-11-18T12:26:42;1.88;;;0.70;;
52188;SDS011;38162;45.926;13.608;2022-11-18T12:29:33;4.57;;;0.70;;
52188;SDS011;38162;45.926;13.608;2022-11-18T12:38:11;0.98;;;0.60;;
52188;SDS011;38162;45.926;13.608;2022-11-18T12:43:01;1.45;;;0.50;;
52188;SDS011;38162;45.926;13.608;2022-11-18T12:45:48;0.93;;;0.60;;
52188;SDS011;38162;45.926;13.608;2022-11-18T12:48:35;2.50;;;0.93;;
52188;SDS011;38162;45.926;13.608;2022-11-18T12:53:41;0.77;;;0.47;;
52188;SDS011;38162;45.926;13.608;2022-11-18T12:58:52;6.57;;;1.48;;
52188;SDS011;38162;45.926;13.608;2022-11-18T13:01:21;5.00;;;0.98;;
52188;SDS011;38162;45.926;13.608;2022-11-18T13:03:48;2.92;;;0.80;;
52188;SDS011;38162;45.926;13.608;2022-11-18T13:06:24;4.70;;;0.90;;
52188;SDS011;38162;45.926;13.608;2022-11-18T13:08:59;6.35;;;1.17;;
52188;SDS011;38162;45.926;13.608;2022-11-18T13:11:28;7.73;;;1.00;;
52188;SDS011;38162;45.926;13.608;2022-11-18T13:14:15;3.58;;;0.90;;
52188;SDS011;38162;45.926;13.608;2022-11-18T13:17:21;2.92;;;0.70;;
52188;SDS011;38162;45.926;13.608;2022-11-18T13:20:30;1.60;;;0.73;;
52188;SDS011;38162;45.926;13.608;2022-11-18T13:36:44;2.05;;;0.32;;
52188;SDS011;38162;45.926;13.608;2022-11-18T13:39:15;1.13;;;0.30;;
52188;SDS011;38162;45.926;13.608;2022-11-18T13:44:34;1.13;;;0.30;;
52188;SDS011;38162;45.926;13.608;2022-11-18T13:52:18;4.40;;;0.50;;
52188;SDS011;38162;45.926;13.608;2022-11-18T13:54:49;3.45;;;0.73;;
52188;SDS011;38162;45.926;13.608;2022-11-18T13:57:17;0.82;;;0.40;;
52188;SDS011;38162;45.926;13.608;2022-11-18T13:59:46;1.05;;;0.60;;
52188;SDS011;38162;45.926;13.608;2022-11-18T14:02:12;2.05;;;1.10;;
52188;SDS011;38162;45.926;13.608;2022-11-18T14:04:45;1.15;;;0.60;;
52188;SDS011;38162;45.926;13.608;2022-11-18T14:07:31;0.80;;;0.40;;
52188;SDS011;38162;45.926;13.608;2022-11-18T14:09:59;1.02;;;0.50;;
52188;SDS011;38162;45.926;13.608;2022-11-18T14:12:31;1.83;;;0.60;;
52188;SDS011;38162;45.926;13.608;2022-11-18T14:15:15;0.98;;;0.47;;
52188;SDS011;38162;45.926;13.608;2022-11-18T14:17:57;0.90;;;0.50;;
52188;SDS011;38162;45.926;13.608;2022-11-18T14:20:25;1.70;;;0.57;;
52188;SDS011;38162;45.926;13.608;2022-11-18T14:22:56;0.90;;;0.50;;
52188;SDS011;38162;45.926;13.608;2022-11-18T14:25:33;2.15;;;0.70;;
52188;SDS011;38162;45.926;13.608;2022-11-18T14:30:55;2.35;;;0.60;;
52188;SDS011;38162;45.926;13.608;2022-11-18T14:33:24;1.80;;;0.60;;
52188;SDS011;38162;45.926;13.608;2022-11-18T14:36:00;0.95;;;0.50;;
52188;SDS011;38162;45.926;13.608;2022-11-18T14:41:00;2.35;;;0.85;;
52188;SDS011;38162;45.926;13.608;2022-11-18T14:43:27;3.85;;;0.80;;
52188;SDS011;38162;45.926;13.608;2022-11-18T14:45:57;1.23;;;0.73;;
52188;SDS011;38162;45.926;13.608;2022-11-18T15:04:44;1.80;;;0.73;;
52188;SDS011;38162;45.926;13.608;2022-11-18T15:07:11;1.35;;;0.90;;
52188;SDS011;38162;45.926;13.608;2022-11-18T15:09:38;3.03;;;1.05;;
52188;SDS011;38162;45.926;13.608;2022-11-18T15:12:04;2.22;;;1.10;;
52188;SDS011;38162;45.926;13.608;2022-11-18T15:14:30;4.03;;;0.93;;
52188;SDS011;38162;45.926;13.608;2022-11-18T15:16:56;1.65;;;1.10;;
52188;SDS011;38162;45.926;13.608;2022-11-18T15:19:22;2.88;;;1.40;;
52188;SDS011;38162;45.926;13.608;2022-11-18T15:21:47;3.70;;;1.92;;
52188;SDS011;38162;45.926;13.608;2022-11-18T15:24:13;5.25;;;2.65;;
52188;SDS011;38162;45.926;13.608;2022-11-18T15:26:43;3.35;;;2.65;;
52188;SDS011;38162;45.926;13.608;2022-11-18T15:29:28;5.60;;;2.97;;
52188;SDS011;38162;45.926;13.608;2022-11-18T15:31:53;5.13;;;2.70;;
52188;SDS011;38162;45.926;13.608;2022-11-18T15:34:19;3.92;;;2.33;;
52188;SDS011;38162;45.926;13.608;2022-11-18T15:36:45;4.28;;;2.55;;
52188;SDS011;38162;45.926;13.608;2022-11-18T15:39:11;5.30;;;2.63;;
52188;SDS011;38162;45.926;13.608;2022-11-18T15:41:38;5.50;;;2.53;;
52188;SDS011;38162;45.926;13.608;2022-11-18T15:44:05;5.80;;;2.20;;
52188;SDS011;38162;45.926;13.608;2022-11-18T15:46:31;5.10;;;1.92;;
52188;SDS011;38162;45.926;13.608;2022-11-18T15:48:59;3.88;;;1.70;;
52188;SDS011;38162;45.926;13.608;2022-11-18T15:51:27;7.90;;;1.90;;
52188;SDS011;38162;45.926;13.608;2022-11-18T15:53:53;3.53;;;1.67;;
52188;SDS011;38162;45.926;13.608;2022-11-18T15:59:04;2.97;;;1.80;;
52188;SDS011;38162;45.926;13.608;2022-11-18T16:01:34;4.03;;;3.28;;
52188;SDS011;38162;45.926;13.608;2022-11-18T16:04:01;5.25;;;4.47;;
52188;SDS011;38162;45.926;13.608;2022-11-18T16:06:28;15.13;;;11.23;;
52188;SDS011;38162;45.926;13.608;2022-11-18T16:08:55;9.02;;;6.28;;
52188;SDS011;38162;45.926;13.608;2022-11-18T16:11:21;8.65;;;5.00;;
52188;SDS011;38162;45.926;13.608;2022-11-18T16:14:06;8.00;;;4.68;;
52188;SDS011;38162;45.926;13.608;2022-11-18T16:16:34;7.03;;;5.13;;
52188;SDS011;38162;45.926;13.608;2022-11-18T16:19:03;8.30;;;5.28;;
52188;SDS011;38162;45.926;13.608;2022-11-18T16:21:31;9.60;;;6.82;;
52188;SDS011;38162;45.926;13.608;2022-11-18T16:23:59;9.13;;;6.68;;
52188;SDS011;38162;45.926;13.608;2022-11-18T16:26:26;9.50;;;6.45;;
52188;SDS011;38162;45.926;13.608;2022-11-18T16:28:54;11.18;;;6.40;;
52188;SDS011;38162;45.926;13.608;2022-11-18T16:31:20;8.15;;;6.15;;
52188;SDS011;38162;45.926;13.608;2022-11-18T16:34:11;9.20;;;6.82;;
52188;SDS011;38162;45.926;13.608;2022-11-18T16:36:40;7.93;;;6.10;;
52188;SDS011;38162;45.926;13.608;2022-11-18T16:39:08;8.60;;;6.32;;
52188;SDS011;38162;45.926;13.608;2022-11-18T16:41:36;11.32;;;5.70;;
52188;SDS011;38162;45.926;13.608;2022-11-18T16:44:04;8.60;;;6.28;;
52188;SDS011;38162;45.926;13.608;2022-11-18T16:46:32;14.63;;;7.57;;
52188;SDS011;38162;45.926;13.608;2022-11-18T16:48:59;12.15;;;8.38;;
52188;SDS011;38162;45.926;13.608;2022-11-18T16:51:27;11.73;;;7.05;;
52188;SDS011;38162;45.926;13.608;2022-11-18T16:53:55;7.18;;;5.38;;
52188;SDS011;38162;45.926;13.608;2022-11-18T16:56:24;9.50;;;5.57;;
52188;SDS011;38162;45.926;13.608;2022-11-18T16:59:02;8.15;;;4.68;;
52188;SDS011;38162;45.926;13.608;2022-11-18T17:01:31;9.25;;;5.20;;
52188;SDS011;38162;45.926;13.608;2022-11-18T17:03:57;8.38;;;4.43;;
52188;SDS011;38162;45.926;13.608;2022-11-18T17:06:26;8.95;;;4.97;;
52188;SDS011;38162;45.926;13.608;2022-11-18T17:08:53;10.18;;;6.03;;
52188;SDS011;38162;45.926;13.608;2022-11-18T17:11:18;6.28;;;4.72;;
52188;SDS011;38162;45.926;13.608;2022-11-18T17:13:44;9.40;;;5.15;;
52188;SDS011;38162;45.926;13.608;2022-11-18T17:16:11;9.38;;;6.25;;
52188;SDS011;38162;45.926;13.608;2022-11-18T17:18:44;11.52;;;10.23;;
52188;SDS011;38162;45.926;13.608;2022-11-18T17:21:14;13.95;;;10.90;;
52188;SDS011;38162;45.926;13.608;2022-11-18T17:23:42;9.68;;;6.20;;
52188;SDS011;38162;45.926;13.608;2022-11-18T17:26:12;9.20;;;5.72;;
52188;SDS011;38162;45.926;13.608;2022-11-18T17:28:39;9.15;;;6.18;;
52188;SDS011;38162;45.926;13.608;2022-11-18T17:31:09;8.50;;;5.55;;
52188;SDS011;38162;45.926;13.608;2022-11-18T17:33:36;7.53;;;4.63;;